createdAt,value
2023-05-21T00:01:48.651Z,22.01
2023-05-21T00:04:16.176Z,22.04
2023-05-21T00:06:43.573Z,22.01
2023-05-21T00:09:13.127Z,21.93
2023-05-21T00:11:41.958Z,21.91
2023-05-21T00:14:09.152Z,21.92
2023-05-21T00:16:36.458Z,21.92
2023-05-21T00:19:05.293Z,21.78
2023-05-21T00:21:33.169Z,21.80
2023-05-21T00:24:08.740Z,21.80
2023-05-21T00:26:36.305Z,21.76
2023-05-21T00:29:07.421Z,21.74
2023-05-21T00:31:35.524Z,21.66
2023-05-21T00:34:02.945Z,21.67
2023-05-21T00:36:31.056Z,21.69
2023-05-21T00:38:58.481Z,21.61
2023-05-21T00:41:26.760Z,21.64
2023-05-21T00:43:54.336Z,21.67
2023-05-21T00:46:22.969Z,21.63
2023-05-21T00:48:51.213Z,21.64
2023-05-21T00:51:18.935Z,21.57
2023-05-21T00:53:49.984Z,21.57
2023-05-21T00:56:20.346Z,21.57
2023-05-21T00:58:48.160Z,21.55
2023-05-21T01:01:16.377Z,21.51
2023-05-21T01:03:43.819Z,21.53
2023-05-21T01:06:14.428Z,21.54
2023-05-21T01:08:42.316Z,21.55
2023-05-21T01:11:17.589Z,21.56
2023-05-21T01:13:49.696Z,21.55
2023-05-21T01:16:18.062Z,21.52
2023-05-21T01:18:46.994Z,21.50
2023-05-21T01:21:20.048Z,21.46
2023-05-21T01:23:47.464Z,21.44
2023-05-21T01:26:14.681Z,21.34
2023-05-21T01:28:42.427Z,21.34
2023-05-21T01:31:26.815Z,21.29
2023-05-21T01:33:59.587Z,21.20
2023-05-21T01:36:34.952Z,21.23
2023-05-21T01:39:09.557Z,21.13
2023-05-21T01:41:42.110Z,21.18
2023-05-21T01:44:11.450Z,21.15
2023-05-21T01:46:39.992Z,21.18
2023-05-21T01:49:09.173Z,21.14
2023-05-21T01:51:39.750Z,21.13
2023-05-21T01:54:07.117Z,21.17
2023-05-21T01:56:34.458Z,21.15
2023-05-21T01:59:01.725Z,21.14
2023-05-21T02:01:31.767Z,21.18
2023-05-21T02:03:59.193Z,21.08
2023-05-21T02:06:28.869Z,21.11
2023-05-21T02:08:56.762Z,21.11
2023-05-21T02:11:24.089Z,21.08
2023-05-21T02:13:51.908Z,21.11
2023-05-21T02:16:23.179Z,21.10
2023-05-21T02:18:57.616Z,21.11
2023-05-21T02:21:25.006Z,21.07
2023-05-21T02:23:52.170Z,21.09
2023-05-21T02:26:19.375Z,21.10
2023-05-21T02:28:46.468Z,21.10
2023-05-21T02:31:13.833Z,21.09
2023-05-21T02:33:42.973Z,21.02
2023-05-21T02:36:13.491Z,20.97
2023-05-21T02:38:44.425Z,20.95
2023-05-21T02:41:13.579Z,20.94
2023-05-21T02:43:40.733Z,20.88
2023-05-21T02:46:08.205Z,20.85
2023-05-21T02:48:35.995Z,20.80
2023-05-21T02:51:04.983Z,20.82
2023-05-21T02:53:32.264Z,20.79
2023-05-21T02:55:59.317Z,20.76
2023-05-21T02:58:26.450Z,20.75
2023-05-21T03:01:02.897Z,20.73
2023-05-21T03:03:30.353Z,20.69
2023-05-21T03:05:58.811Z,20.68
2023-05-21T03:08:26.710Z,20.67
2023-05-21T03:10:54.064Z,20.63
2023-05-21T03:13:21.897Z,20.60
2023-05-21T03:15:49.381Z,20.62
2023-05-21T03:18:17.039Z,20.61
2023-05-21T03:20:47.057Z,20.65
2023-05-21T03:23:17.270Z,20.60
2023-05-21T03:25:47.404Z,20.57
2023-05-21T03:28:15.066Z,20.59
2023-05-21T03:30:49.916Z,20.56
2023-05-21T03:33:37.419Z,20.52
2023-05-21T03:36:17.874Z,20.51
2023-05-21T03:38:44.992Z,20.50
2023-05-21T03:41:13.647Z,20.49
2023-05-21T03:43:43.137Z,20.46
2023-05-21T03:46:10.516Z,20.35
2023-05-21T03:48:58.653Z,20.29
2023-05-21T03:51:31.903Z,20.31
2023-05-21T03:54:00.159Z,20.35
2023-05-21T03:56:27.724Z,20.34
2023-05-21T03:58:55.056Z,20.30
2023-05-21T04:01:22.314Z,20.28
2023-05-21T04:03:52.195Z,20.22
2023-05-21T04:06:23.062Z,20.15
2023-05-21T04:08:50.771Z,20.15
2023-05-21T04:11:19.461Z,20.10
2023-05-21T04:13:48.428Z,20.05
2023-05-21T04:16:19.506Z,19.95
2023-05-21T04:18:47.547Z,19.90
2023-05-21T04:21:19.058Z,19.95
2023-05-21T04:23:46.741Z,19.91
2023-05-21T04:26:38.710Z,19.94
2023-05-21T04:29:06.177Z,19.87
2023-05-21T04:31:33.471Z,19.91
2023-05-21T04:34:02.653Z,19.88
2023-05-21T04:36:30.374Z,19.91
2023-05-21T04:38:57.565Z,19.87
2023-05-21T04:41:24.630Z,19.84
2023-05-21T04:43:55.405Z,19.88
2023-05-21T04:46:27.099Z,19.91
2023-05-21T04:48:58.184Z,19.85
2023-05-21T04:51:26.943Z,19.85
2023-05-21T04:53:54.441Z,19.92
2023-05-21T04:56:27.003Z,19.81
2023-05-21T04:58:54.653Z,19.76
2023-05-21T05:01:27.407Z,19.79
2023-05-21T05:03:54.678Z,19.80
2023-05-21T05:06:22.521Z,19.88
2023-05-21T05:08:50.140Z,19.84
2023-05-21T05:11:25.604Z,19.91
2023-05-21T05:13:53.510Z,19.91
2023-05-21T05:16:25.574Z,19.92
2023-05-21T05:18:59.268Z,19.92
2023-05-21T05:21:26.813Z,19.94
2023-05-21T05:23:54.308Z,19.92
2023-05-21T05:26:27.077Z,19.94
2023-05-21T05:28:55.325Z,19.95
2023-05-21T05:31:24.027Z,19.97
2023-05-21T05:33:53.001Z,19.93
2023-05-21T05:36:22.897Z,19.89
2023-05-21T05:38:50.192Z,19.94
2023-05-21T05:41:17.603Z,19.93
2023-05-21T05:43:44.740Z,19.97
2023-05-21T05:46:12.039Z,20.01
2023-05-21T05:48:39.741Z,20.07
2023-05-21T05:51:06.794Z,20.08
2023-05-21T05:53:34.192Z,20.06
2023-05-21T05:56:01.322Z,20.08
2023-05-21T05:58:31.365Z,20.10
2023-05-21T06:01:13.764Z,20.09
2023-05-21T06:03:41.511Z,20.12
2023-05-21T06:06:17.328Z,20.12
2023-05-21T06:08:45.017Z,19.93
2023-05-21T06:11:13.090Z,19.90
2023-05-21T06:13:40.449Z,19.94
2023-05-21T06:16:10.222Z,19.86
2023-05-21T06:18:38.795Z,19.84
2023-05-21T06:21:06.204Z,19.80
2023-05-21T06:23:33.639Z,19.78
2023-05-21T06:26:00.949Z,19.81
2023-05-21T06:28:28.293Z,19.80
2023-05-21T06:30:55.700Z,19.80
2023-05-21T06:33:28.041Z,19.73
2023-05-21T06:35:56.302Z,19.73
2023-05-21T06:38:24.053Z,19.75
2023-05-21T06:40:51.234Z,19.75
2023-05-21T06:43:34.623Z,19.72
2023-05-21T06:46:20.187Z,19.75
2023-05-21T06:48:47.424Z,19.82
2023-05-21T06:51:16.525Z,19.88
2023-05-21T06:53:43.935Z,19.94
2023-05-21T06:56:11.025Z,19.98
2023-05-21T06:58:47.048Z,20.02
2023-05-21T07:01:16.747Z,20.13
2023-05-21T07:03:47.105Z,20.17
2023-05-21T07:06:23.499Z,20.24
2023-05-21T07:08:51.024Z,20.25
2023-05-21T07:11:18.764Z,20.30
2023-05-21T07:13:46.360Z,20.39
2023-05-21T07:16:15.700Z,20.43
2023-05-21T07:18:42.910Z,20.46
2023-05-21T07:21:10.499Z,20.57
2023-05-21T07:23:37.889Z,20.69
2023-05-21T07:26:05.750Z,20.63
2023-05-21T07:28:35.260Z,20.80
2023-05-21T07:31:05.173Z,20.88
2023-05-21T07:33:40.988Z,20.96
2023-05-21T07:36:10.187Z,21.03
2023-05-21T07:38:38.490Z,21.01
2023-05-21T07:41:06.003Z,21.15
2023-05-21T07:43:33.324Z,21.22
2023-05-21T07:46:02.108Z,21.29
2023-05-21T07:48:30.330Z,21.37
2023-05-21T07:51:01.362Z,21.43
2023-05-21T07:53:34.480Z,21.51
2023-05-21T07:56:05.021Z,21.62
2023-05-21T07:58:35.336Z,21.69
2023-05-21T08:01:03.116Z,21.60
2023-05-21T08:03:31.755Z,21.69
2023-05-21T08:05:59.286Z,21.86
2023-05-21T08:08:29.440Z,22.08
2023-05-21T08:11:06.172Z,22.16
2023-05-21T08:13:34.787Z,22.25
2023-05-21T08:16:03.871Z,22.14
2023-05-21T08:18:33.799Z,22.31
2023-05-21T08:21:01.783Z,22.44
2023-05-21T08:23:29.422Z,22.36
2023-05-21T08:26:02.574Z,22.46
2023-05-21T08:28:31.382Z,22.55
2023-05-21T08:30:59.573Z,22.62
2023-05-21T08:33:27.665Z,22.84
2023-05-21T08:35:54.907Z,22.72
2023-05-21T08:38:32.585Z,23.14
2023-05-21T08:41:19.529Z,23.30
2023-05-21T08:43:50.851Z,23.75
2023-05-21T08:46:21.293Z,23.52
2023-05-21T08:48:50.718Z,23.68
2023-05-21T08:51:18.298Z,23.73
2023-05-21T08:53:49.940Z,24.01
2023-05-21T08:56:19.105Z,23.69
2023-05-21T08:58:49.938Z,24.04
2023-05-21T09:01:22.384Z,24.60
2023-05-21T09:04:01.960Z,24.55
2023-05-21T09:06:36.782Z,24.90
2023-05-21T09:09:11.627Z,24.77
2023-05-21T09:11:44.077Z,24.87
2023-05-21T09:14:12.655Z,25.09
2023-05-21T09:17:02.565Z,25.78
2023-05-21T09:19:32.538Z,26.12
2023-05-21T09:22:06.997Z,25.90
2023-05-21T09:24:36.279Z,26.19
2023-05-21T09:27:07.991Z,26.27
2023-05-21T09:29:36.339Z,26.20
2023-05-21T09:32:08.027Z,26.33
2023-05-21T09:34:38.550Z,26.18
2023-05-21T09:37:16.354Z,25.85
2023-05-21T09:39:44.369Z,25.90
2023-05-21T09:42:11.724Z,25.71
2023-05-21T09:44:39.004Z,25.77
2023-05-21T09:47:06.351Z,25.62
2023-05-21T09:49:37.193Z,25.88
2023-05-21T09:52:05.476Z,25.96
2023-05-21T09:54:35.616Z,26.15
2023-05-21T09:57:03.417Z,26.28
2023-05-21T09:59:38.643Z,26.30
2023-05-21T10:02:27.064Z,26.29
2023-05-21T10:04:57.819Z,26.79
2023-05-21T10:07:29.190Z,26.79
2023-05-21T10:09:58.144Z,26.82
2023-05-21T10:12:26.029Z,27.03
2023-05-21T10:15:03.755Z,26.53
2023-05-21T10:17:31.633Z,26.74
2023-05-21T10:20:00.219Z,27.13
2023-05-21T10:22:28.467Z,26.68
2023-05-21T10:24:57.733Z,26.73
2023-05-21T10:27:25.045Z,27.08
2023-05-21T10:29:57.473Z,27.04
2023-05-21T10:32:26.905Z,26.77
2023-05-21T10:34:58.666Z,27.10
2023-05-21T10:37:27.784Z,27.28
2023-05-21T10:39:59.064Z,27.62
2023-05-21T10:42:46.520Z,27.82
2023-05-21T10:45:21.912Z,27.36
2023-05-21T10:48:16.810Z,26.99
2023-05-21T10:51:09.033Z,26.64
2023-05-21T10:54:13.605Z,26.42
2023-05-21T10:56:54.585Z,26.21
2023-05-21T10:59:42.714Z,26.50
2023-05-21T11:02:13.208Z,26.71
2023-05-21T11:04:43.531Z,26.46
2023-05-21T11:07:12.476Z,26.59
2023-05-21T11:09:42.515Z,26.59
2023-05-21T11:12:10.312Z,26.26
2023-05-21T11:14:43.276Z,26.45
2023-05-21T11:17:17.101Z,26.53
2023-05-21T11:19:53.522Z,26.05
2023-05-21T11:22:20.944Z,25.92
2023-05-21T11:24:50.535Z,25.78
2023-05-21T11:27:43.013Z,25.90
2023-05-21T11:30:17.729Z,26.24
2023-05-21T11:33:14.208Z,26.20
2023-05-21T11:35:50.203Z,26.24
2023-05-21T11:38:18.292Z,25.99
2023-05-21T11:40:55.726Z,25.83
2023-05-21T11:43:23.045Z,25.75
2023-05-21T11:45:55.676Z,25.95
2023-05-21T11:48:28.417Z,25.87
2023-05-21T11:50:57.703Z,25.75
2023-05-21T11:53:33.540Z,25.80
2023-05-21T11:56:04.971Z,25.76
2023-05-21T11:58:32.608Z,25.66
2023-05-21T12:00:59.752Z,25.63
2023-05-21T12:03:27.449Z,25.41
2023-05-21T12:05:54.935Z,25.68
2023-05-21T12:08:25.822Z,25.78
2023-05-21T12:11:02.020Z,25.54
2023-05-21T12:13:29.561Z,25.75
2023-05-21T12:15:59.194Z,25.29
2023-05-21T12:18:27.066Z,25.09
2023-05-21T12:20:59.737Z,25.34
2023-05-21T12:23:27.102Z,25.34
2023-05-21T12:25:54.468Z,25.59
2023-05-21T12:28:22.697Z,25.28
2023-05-21T12:30:49.956Z,25.61
2023-05-21T12:33:20.621Z,25.34
2023-05-21T12:35:51.409Z,25.09
2023-05-21T12:38:18.701Z,24.93
2023-05-21T12:40:46.091Z,24.97
2023-05-21T12:43:13.705Z,24.79
2023-05-21T12:45:41.400Z,24.92
2023-05-21T12:48:09.091Z,24.76
2023-05-21T12:50:43.826Z,24.64
2023-05-21T12:53:16.494Z,24.71
2023-05-21T12:55:44.093Z,24.62
2023-05-21T12:58:14.095Z,24.66
2023-05-21T13:00:43.607Z,24.53
2023-05-21T13:03:14.633Z,24.79
2023-05-21T13:05:43.441Z,25.23
2023-05-21T13:08:17.327Z,24.91
2023-05-21T13:10:47.637Z,24.44
2023-05-21T13:13:14.942Z,24.93
2023-05-21T13:15:42.370Z,24.97
2023-05-21T13:18:09.682Z,24.87
2023-05-21T13:20:37.220Z,24.56
2023-05-21T13:23:06.720Z,24.85
2023-05-21T13:25:38.195Z,25.08
2023-05-21T13:28:13.445Z,25.67
2023-05-21T13:30:40.860Z,25.81
2023-05-21T13:33:12.307Z,25.53
2023-05-21T13:35:39.659Z,25.78
2023-05-21T13:38:09.195Z,25.20
2023-05-21T13:40:38.858Z,25.47
2023-05-21T13:43:09.099Z,25.42
2023-05-21T13:45:36.397Z,25.28
2023-05-21T13:48:03.537Z,25.02
2023-05-21T13:50:30.942Z,25.31
2023-05-21T13:53:02.453Z,25.38
2023-05-21T13:55:29.772Z,25.36
2023-05-21T13:57:56.951Z,25.13
2023-05-21T14:00:26.616Z,25.28
2023-05-21T14:02:57.371Z,25.08
2023-05-21T14:05:27.014Z,24.96
2023-05-21T14:07:56.914Z,25.13
2023-05-21T14:10:24.218Z,25.32
2023-05-21T14:12:51.783Z,25.07
2023-05-21T14:15:19.361Z,25.04
2023-05-21T14:17:50.200Z,25.09
2023-05-21T14:20:24.761Z,24.91
2023-05-21T14:22:52.430Z,24.99
2023-05-21T14:25:20.291Z,25.24
2023-05-21T14:27:47.908Z,25.09
2023-05-21T14:30:19.102Z,25.26
2023-05-21T14:32:47.940Z,25.05
2023-05-21T14:35:21.371Z,25.18
2023-05-21T14:37:52.466Z,24.88
2023-05-21T14:40:26.176Z,24.98
2023-05-21T14:42:54.208Z,24.93
2023-05-21T14:45:22.664Z,25.05
2023-05-21T14:47:54.271Z,24.76
2023-05-21T14:50:22.279Z,24.88
2023-05-21T14:52:50.354Z,24.90
2023-05-21T14:55:22.703Z,24.85
2023-05-21T14:57:55.819Z,24.59
2023-05-21T15:00:24.067Z,24.41
2023-05-21T15:02:53.029Z,24.62
2023-05-21T15:05:23.277Z,24.51
2023-05-21T15:07:51.138Z,24.56
2023-05-21T15:10:23.589Z,24.61
2023-05-21T15:12:51.990Z,24.43
2023-05-21T15:15:23.134Z,24.33
2023-05-21T15:17:51.577Z,24.18
2023-05-21T15:20:23.348Z,24.46
2023-05-21T15:22:59.033Z,24.51
2023-05-21T15:25:36.794Z,24.61
2023-05-21T15:28:05.197Z,24.50
2023-05-21T15:30:33.448Z,24.62
2023-05-21T15:33:04.119Z,24.14
2023-05-21T15:35:31.828Z,24.48
2023-05-21T15:37:59.655Z,24.27
2023-05-21T15:40:27.728Z,24.51
2023-05-21T15:42:56.775Z,24.52
2023-05-21T15:45:25.882Z,24.31
2023-05-21T15:47:54.008Z,24.31
2023-05-21T15:50:24.496Z,24.50
2023-05-21T15:53:04.358Z,24.21
2023-05-21T15:55:35.740Z,23.89
2023-05-21T15:58:04.485Z,23.96
2023-05-21T16:00:31.887Z,23.82
2023-05-21T16:02:59.784Z,23.96
2023-05-21T16:05:27.531Z,24.10
2023-05-21T16:07:55.960Z,24.15
2023-05-21T16:10:25.470Z,24.15
2023-05-21T16:12:53.590Z,24.11
2023-05-21T16:15:24.662Z,23.53
2023-05-21T16:17:51.888Z,23.62
2023-05-21T16:20:21.985Z,23.92
2023-05-21T16:22:49.809Z,23.86
2023-05-21T16:25:20.031Z,23.95
2023-05-21T16:27:48.368Z,23.52
2023-05-21T16:30:19.139Z,23.88
2023-05-21T16:32:46.381Z,24.03
2023-05-21T16:35:13.818Z,23.90
2023-05-21T16:37:41.388Z,23.93
2023-05-21T16:40:09.556Z,24.08
2023-05-21T16:42:36.863Z,23.73
2023-05-21T16:45:07.944Z,23.62
2023-05-21T16:47:40.434Z,23.57
2023-05-21T16:50:10.954Z,23.37
2023-05-21T16:52:43.309Z,23.47
2023-05-21T16:58:00.290Z,23.43
2023-05-21T17:00:31.475Z,23.46
2023-05-21T17:03:08.796Z,23.42
2023-05-21T17:05:36.587Z,23.61
2023-05-21T17:08:04.399Z,23.68
2023-05-21T17:10:36.822Z,23.54
2023-05-21T17:13:21.464Z,23.59
2023-05-21T17:15:55.121Z,23.26
2023-05-21T17:18:23.626Z,23.35
2023-05-21T17:20:56.464Z,23.32
2023-05-21T17:23:26.258Z,23.54
2023-05-21T17:25:56.723Z,23.35
2023-05-21T17:28:27.367Z,23.23
2023-05-21T17:30:54.859Z,23.31
2023-05-21T17:33:22.845Z,23.17
2023-05-21T17:35:53.416Z,23.21
2023-05-21T17:38:21.345Z,23.14
2023-05-21T17:40:50.928Z,23.16
2023-05-21T17:43:21.160Z,23.14
2023-05-21T17:45:48.692Z,23.10
2023-05-21T17:48:18.114Z,23.22
2023-05-21T17:50:48.656Z,23.07
2023-05-21T17:53:19.389Z,23.05
2023-05-21T17:55:48.214Z,23.05
2023-05-21T17:58:15.933Z,22.79
2023-05-21T18:00:43.306Z,22.70
2023-05-21T18:03:13.307Z,22.91
2023-05-21T18:05:40.697Z,23.04
2023-05-21T18:08:10.989Z,23.01
2023-05-21T18:10:45.665Z,23.08
2023-05-21T18:13:13.134Z,23.10
2023-05-21T18:15:41.230Z,23.18
2023-05-21T18:18:20.635Z,23.19
2023-05-21T18:20:53.216Z,22.97
2023-05-21T18:23:21.081Z,23.14
2023-05-21T18:25:50.900Z,23.22
2023-05-21T18:28:20.745Z,23.19
2023-05-21T18:30:48.607Z,23.19
2023-05-21T18:33:17.181Z,23.26
2023-05-21T18:35:44.897Z,23.26
2023-05-21T18:38:16.026Z,23.32
2023-05-21T18:40:46.179Z,23.34
2023-05-21T18:43:17.348Z,23.34
2023-05-21T18:45:45.674Z,23.30
2023-05-21T18:48:13.514Z,23.19
2023-05-21T18:50:41.726Z,23.05
2023-05-21T18:53:09.526Z,23.09
2023-05-21T18:55:37.057Z,23.13
2023-05-21T18:58:07.934Z,23.13
2023-05-21T19:00:39.926Z,22.56
2023-05-21T19:03:07.477Z,22.71
2023-05-21T19:05:34.953Z,22.47
2023-05-21T19:08:02.528Z,22.58
2023-05-21T19:10:30.934Z,22.42
2023-05-21T19:12:58.254Z,22.52
2023-05-21T19:15:25.411Z,22.68
2023-05-21T19:17:52.661Z,22.68
2023-05-21T19:20:27.398Z,22.83
2023-05-21T19:22:56.026Z,22.86
2023-05-21T19:25:25.217Z,22.99
2023-05-21T19:27:53.690Z,22.90
2023-05-21T19:30:21.574Z,22.81
2023-05-21T19:32:49.094Z,22.93
2023-05-21T19:35:25.866Z,22.92
2023-05-21T19:38:04.862Z,22.94
2023-05-21T19:40:39.751Z,23.01
2023-05-21T19:43:10.499Z,23.09
2023-05-21T19:45:45.212Z,23.13
2023-05-21T19:48:15.693Z,23.09
2023-05-21T19:50:48.982Z,22.84
2023-05-21T19:53:20.671Z,22.92
2023-05-21T19:56:06.941Z,23.00
2023-05-21T19:58:39.516Z,22.95
2023-05-21T20:01:08.918Z,23.02
2023-05-21T20:03:40.207Z,23.02
2023-05-21T20:06:29.533Z,22.86
2023-05-21T20:08:57.606Z,22.96
2023-05-21T20:11:27.920Z,22.98
2023-05-21T20:13:58.417Z,22.97
2023-05-21T20:16:26.977Z,23.01
2023-05-21T20:19:05.903Z,22.80
2023-05-21T20:21:34.289Z,22.77
2023-05-21T20:24:04.727Z,22.84
2023-05-21T20:26:35.603Z,22.86
2023-05-21T20:29:12.088Z,22.78
2023-05-21T20:31:43.046Z,22.85
2023-05-21T20:34:12.748Z,22.84
2023-05-21T20:36:56.352Z,22.81
2023-05-21T20:39:33.781Z,22.77
2023-05-21T20:42:02.609Z,22.88
2023-05-21T20:44:30.228Z,22.87
2023-05-21T20:47:01.956Z,22.68
2023-05-21T20:49:35.875Z,22.75
2023-05-21T20:52:09.234Z,22.72
2023-05-21T20:54:37.676Z,22.80
2023-05-21T20:57:06.354Z,22.82
2023-05-21T20:59:42.136Z,22.75
2023-05-21T21:02:14.451Z,22.81
2023-05-21T21:04:42.488Z,22.80
2023-05-21T21:07:13.232Z,22.82
2023-05-21T21:09:41.048Z,22.89
2023-05-21T21:12:24.797Z,22.93
2023-05-21T21:14:54.264Z,22.98
2023-05-21T21:17:35.497Z,22.98
2023-05-21T21:20:03.116Z,23.03
2023-05-21T21:22:34.239Z,23.10
2023-05-21T21:25:03.786Z,23.10
2023-05-21T21:27:33.464Z,23.08
2023-05-21T21:30:03.728Z,23.05
2023-05-21T21:32:33.170Z,23.03
2023-05-21T21:35:00.628Z,23.04
2023-05-21T21:37:30.728Z,23.05
2023-05-21T21:40:01.022Z,23.05
2023-05-21T21:42:28.306Z,23.09
2023-05-21T21:44:55.785Z,23.08
2023-05-21T21:47:28.197Z,23.11
2023-05-21T21:49:56.495Z,23.12
2023-05-21T21:52:29.327Z,23.08
2023-05-21T21:54:59.316Z,23.05
2023-05-21T21:57:30.341Z,23.10
2023-05-21T22:00:03.446Z,23.12
2023-05-21T22:02:34.926Z,23.11
2023-05-21T22:05:02.695Z,23.11
2023-05-21T22:07:37.483Z,23.09
2023-05-21T22:10:06.036Z,23.06
2023-05-21T22:12:38.533Z,23.10
2023-05-21T22:15:11.934Z,23.12
2023-05-21T22:17:41.479Z,23.15
2023-05-21T22:20:10.729Z,23.14
2023-05-21T22:22:41.310Z,23.03
2023-05-21T22:25:13.070Z,23.05
2023-05-21T22:27:41.138Z,23.02
2023-05-21T22:30:12.026Z,23.05
2023-05-21T22:32:41.519Z,23.09
2023-05-21T22:35:10.098Z,23.03
2023-05-21T22:37:37.684Z,23.09
2023-05-21T22:40:13.592Z,23.08
2023-05-21T22:42:46.708Z,23.02
2023-05-21T22:45:16.777Z,23.06
2023-05-21T22:47:44.040Z,23.02
2023-05-21T22:50:14.229Z,23.04
2023-05-21T22:52:44.603Z,23.07
2023-05-21T22:55:16.728Z,23.07
2023-05-21T22:57:47.359Z,22.98
2023-05-21T23:00:21.278Z,23.00
2023-05-21T23:02:53.983Z,23.04
2023-05-21T23:05:22.150Z,22.98
2023-05-21T23:07:50.514Z,23.00
2023-05-21T23:10:23.482Z,22.92
2023-05-21T23:12:50.826Z,22.95
2023-05-21T23:15:19.295Z,22.94
2023-05-21T23:17:48.575Z,22.92
2023-05-21T23:20:15.999Z,22.92
2023-05-21T23:22:43.526Z,22.87
2023-05-21T23:25:10.896Z,22.89
2023-05-21T23:27:38.033Z,22.91
2023-05-21T23:30:05.903Z,22.90
2023-05-21T23:32:33.172Z,22.83
2023-05-21T23:35:00.371Z,22.86
2023-05-21T23:37:30.016Z,22.86
2023-05-21T23:39:57.302Z,22.82
2023-05-21T23:42:27.484Z,22.81
2023-05-21T23:44:57.747Z,22.85
2023-05-21T23:47:25.605Z,22.83
2023-05-21T23:49:53.138Z,22.80
2023-05-21T23:52:26.964Z,22.80
2023-05-21T23:54:58.195Z,22.80
2023-05-21T23:57:28.432Z,22.74
